createdAt,value
2022-12-22T00:03:10.772Z,76.90
2022-12-22T00:15:11.017Z,72.30
2022-12-22T00:27:11.480Z,81.90
2022-12-22T00:39:11.936Z,74.50
2022-12-22T00:51:12.372Z,85.40
2022-12-22T01:03:12.925Z,83.50
2022-12-22T01:15:13.298Z,76.00
2022-12-22T01:27:13.749Z,82.90
2022-12-22T01:39:14.168Z,78.80
2022-12-22T01:51:14.619Z,81.20
2022-12-22T02:03:15.126Z,78.00
2022-12-22T02:15:15.549Z,85.20
2022-12-22T02:27:16.005Z,71.80
2022-12-22T02:39:16.430Z,85.40
2022-12-22T02:51:16.897Z,85.70
2022-12-22T03:03:17.533Z,81.10
2022-12-22T03:15:17.795Z,78.60
2022-12-22T03:27:18.276Z,84.40
2022-12-22T03:39:18.664Z,76.80
2022-12-22T03:51:19.134Z,84.70
2022-12-22T04:03:19.679Z,173.30
2022-12-22T04:15:20.065Z,97.00
2022-12-22T04:27:20.495Z,110.80
2022-12-22T04:39:20.974Z,83.10
2022-12-22T04:51:21.371Z,82.80
2022-12-22T05:03:21.914Z,95.80
2022-12-22T05:15:22.320Z,87.60
2022-12-22T05:27:22.719Z,85.00
2022-12-22T05:39:23.232Z,90.10
2022-12-22T05:51:23.702Z,87.50
2022-12-22T06:03:24.145Z,133.40
2022-12-22T06:15:24.579Z,123.10
2022-12-22T06:27:25.031Z,100.20
2022-12-22T06:39:25.487Z,101.60
2022-12-22T06:51:25.933Z,84.90
2022-12-22T07:03:26.480Z,93.80
2022-12-22T07:15:26.821Z,84.80
2022-12-22T07:27:27.315Z,89.60
2022-12-22T07:39:27.736Z,78.70
2022-12-22T07:51:28.170Z,81.90
2022-12-22T08:03:28.772Z,79.50
2022-12-22T08:15:29.120Z,84.70
2022-12-22T08:27:29.527Z,68.70
2022-12-22T08:39:29.959Z,77.60
2022-12-22T08:51:30.404Z,66.60
2022-12-22T09:03:30.965Z,61.20
2022-12-22T09:15:31.329Z,55.00
2022-12-22T09:27:31.804Z,45.70
2022-12-22T09:39:32.249Z,44.50
2022-12-22T09:51:32.716Z,52.20
2022-12-22T10:03:33.216Z,51.60
2022-12-22T10:15:33.563Z,48.30
2022-12-22T10:27:36.198Z,47.30
2022-12-22T10:39:34.587Z,45.70
2022-12-22T10:51:34.966Z,40.50
2022-12-22T11:03:35.519Z,35.50
2022-12-22T11:15:35.878Z,42.90
2022-12-22T11:27:40.771Z,40.40
2022-12-22T11:39:36.766Z,36.20
2022-12-22T11:51:37.216Z,37.40
2022-12-22T12:03:37.844Z,41.90
2022-12-22T12:15:38.219Z,58.10
2022-12-22T12:27:38.551Z,66.80
2022-12-22T12:39:39.015Z,67.10
2022-12-22T12:51:39.506Z,74.00
2022-12-22T13:04:02.550Z,78.40
2022-12-22T13:15:40.515Z,88.00
2022-12-22T13:27:40.851Z,155.30
2022-12-22T13:39:41.278Z,92.90
2022-12-22T13:51:41.778Z,94.80
2022-12-22T14:03:59.608Z,91.80
2022-12-22T14:15:42.651Z,108.20
2022-12-22T14:27:43.105Z,116.10
2022-12-22T14:39:43.554Z,94.20
2022-12-22T14:51:43.996Z,116.70
2022-12-22T15:03:44.596Z,100.90
2022-12-22T15:15:44.882Z,93.90
2022-12-22T15:27:45.394Z,129.70
2022-12-22T15:39:45.844Z,149.90
2022-12-22T15:51:46.285Z,104.30
2022-12-22T16:03:46.904Z,104.30
2022-12-22T16:15:47.281Z,119.80
2022-12-22T16:27:47.621Z,97.40
2022-12-22T16:39:48.078Z,69.70
2022-12-22T16:51:48.531Z,49.70
2022-12-22T17:03:49.058Z,49.20
2022-12-22T17:15:49.463Z,52.60
2022-12-22T17:27:49.888Z,86.60
2022-12-22T17:39:50.398Z,64.70
2022-12-22T17:51:50.907Z,46.00
2022-12-22T18:03:51.328Z,60.10
2022-12-22T18:15:51.754Z,89.50
2022-12-22T18:27:52.131Z,84.70
2022-12-22T18:39:52.692Z,101.70
2022-12-22T18:51:53.082Z,65.50
2022-12-22T19:03:53.481Z,62.50
2022-12-22T19:15:53.992Z,72.80
2022-12-22T19:27:54.427Z,77.40
2022-12-22T19:39:54.856Z,92.90
2022-12-22T19:51:55.306Z,84.40
2022-12-22T20:03:55.773Z,81.10
2022-12-22T20:15:56.199Z,94.20
2022-12-22T20:27:56.670Z,88.10
2022-12-22T20:39:57.146Z,94.50
2022-12-22T20:51:57.611Z,90.20
2022-12-22T21:03:58.126Z,89.10
2022-12-22T21:15:58.477Z,93.00
2022-12-22T21:27:58.887Z,88.60
2022-12-22T21:39:59.380Z,87.90
2022-12-22T21:51:59.867Z,78.10
2022-12-22T22:04:00.353Z,83.30
2022-12-22T22:16:00.763Z,79.30
2022-12-22T22:28:01.149Z,55.20
2022-12-22T22:40:01.662Z,57.10
2022-12-22T22:52:02.072Z,46.80
2022-12-22T23:04:02.651Z,51.30
2022-12-22T23:16:03.108Z,45.50
2022-12-22T23:28:03.461Z,60.30
2022-12-22T23:40:25.608Z,40.70
2022-12-22T23:52:04.363Z,46.20
